createdAt,value
2019-03-04T00:01:42.332Z,9.30
2019-03-04T00:05:44.415Z,9.29
2019-03-04T00:09:46.301Z,9.31
2019-03-04T00:13:48.223Z,9.37
2019-03-04T00:17:50.118Z,9.39
2019-03-04T00:21:52.027Z,9.36
2019-03-04T00:25:55.356Z,9.33
2019-03-04T00:29:57.261Z,9.41
2019-03-04T00:33:59.330Z,9.40
2019-03-04T00:38:01.543Z,9.34
2019-03-04T00:42:03.442Z,9.44
2019-03-04T00:46:06.476Z,9.48
2019-03-04T00:50:15.823Z,9.49
2019-03-04T00:54:17.976Z,9.50
2019-03-04T00:58:19.950Z,9.43
2019-03-04T01:02:21.851Z,9.47
2019-03-04T01:06:23.756Z,9.49
2019-03-04T01:10:25.657Z,9.52
2019-03-04T01:14:27.576Z,9.44
2019-03-04T01:18:29.464Z,9.49
2019-03-04T01:22:31.365Z,9.38
2019-03-04T01:26:33.694Z,9.36
2019-03-04T01:30:35.594Z,9.22
2019-03-04T01:34:38.450Z,9.10
2019-03-04T01:38:40.349Z,9.10
2019-03-04T01:42:42.428Z,8.96
2019-03-04T01:46:44.341Z,8.91
2019-03-04T01:50:46.243Z,8.83
2019-03-04T01:54:48.124Z,8.80
2019-03-04T01:58:50.025Z,8.76
2019-03-04T02:02:51.942Z,8.80
2019-03-04T02:06:53.832Z,8.71
2019-03-04T02:10:55.722Z,8.58
2019-03-04T02:14:57.644Z,8.43
2019-03-04T02:18:59.560Z,8.26
2019-03-04T02:23:01.450Z,8.06
2019-03-04T02:27:03.364Z,7.95
2019-03-04T02:31:05.640Z,7.80
2019-03-04T02:35:07.546Z,7.78
2019-03-04T02:39:09.447Z,7.82
2019-03-04T02:43:11.936Z,7.78
2019-03-04T02:47:13.901Z,7.72
2019-03-04T02:51:15.899Z,7.72
2019-03-04T02:55:18.144Z,7.76
2019-03-04T02:59:20.043Z,7.77
2019-03-04T03:03:21.984Z,7.79
2019-03-04T03:07:23.883Z,7.83
2019-03-04T03:11:25.787Z,7.79
2019-03-04T03:15:27.670Z,7.80
2019-03-04T03:19:29.574Z,7.80
2019-03-04T03:23:31.475Z,7.75
2019-03-04T03:27:33.383Z,7.66
2019-03-04T03:31:35.281Z,7.57
2019-03-04T03:35:38.151Z,7.50
2019-03-04T03:39:40.043Z,7.43
2019-03-04T03:43:41.989Z,7.34
2019-03-04T03:47:43.893Z,7.19
2019-03-04T03:51:45.883Z,7.11
2019-03-04T03:55:47.793Z,6.97
2019-03-04T03:59:49.704Z,6.92
2019-03-04T04:03:51.578Z,6.89
2019-03-04T04:07:53.478Z,6.91
2019-03-04T04:11:55.366Z,6.89
2019-03-04T04:15:57.331Z,6.85
2019-03-04T04:19:59.225Z,6.76
2019-03-04T04:24:01.496Z,6.66
2019-03-04T04:28:05.034Z,6.60
2019-03-04T04:32:07.192Z,6.60
2019-03-04T04:36:09.165Z,6.59
2019-03-04T04:40:15.460Z,6.56
2019-03-04T04:44:17.389Z,6.57
2019-03-04T04:48:19.300Z,6.55
2019-03-04T04:52:23.275Z,6.54
2019-03-04T04:56:25.753Z,6.52
2019-03-04T05:00:28.326Z,6.43
2019-03-04T05:04:30.799Z,6.44
2019-03-04T05:08:32.710Z,6.44
2019-03-04T05:12:34.584Z,6.45
2019-03-04T05:16:36.556Z,6.47
2019-03-04T05:20:38.532Z,6.44
2019-03-04T05:24:40.432Z,6.40
2019-03-04T05:28:42.481Z,6.38
2019-03-04T05:32:44.457Z,6.38
2019-03-04T05:36:46.348Z,6.36
2019-03-04T05:40:49.219Z,6.31
2019-03-04T05:44:51.118Z,6.26
2019-03-04T05:48:53.014Z,6.21
2019-03-04T05:52:54.929Z,6.12
2019-03-04T05:56:56.806Z,6.05
2019-03-04T06:01:28.441Z,5.97
2019-03-04T06:05:30.350Z,5.67
2019-03-04T06:09:32.327Z,5.82
2019-03-04T06:13:34.232Z,5.82
2019-03-04T06:17:36.126Z,5.83
2019-03-04T06:21:38.023Z,5.78
2019-03-04T06:25:39.922Z,5.74
2019-03-04T06:29:41.906Z,5.74
2019-03-04T06:33:43.806Z,5.76
2019-03-04T06:37:46.655Z,5.85
2019-03-04T06:41:48.572Z,5.97
2019-03-04T06:45:50.532Z,6.04
2019-03-04T06:49:52.430Z,6.13
2019-03-04T06:54:21.825Z,6.27
2019-03-04T06:58:23.763Z,6.39
2019-03-04T07:02:35.617Z,6.53
2019-03-04T07:06:37.523Z,6.72
2019-03-04T07:10:39.422Z,6.91
2019-03-04T07:14:41.321Z,7.14
2019-03-04T07:18:43.226Z,7.30
2019-03-04T07:22:45.116Z,7.49
2019-03-04T07:26:47.386Z,7.75
2019-03-04T07:30:49.281Z,7.88
2019-03-04T07:34:51.195Z,7.89
2019-03-04T07:38:55.926Z,8.06
2019-03-04T07:42:57.832Z,8.18
2019-03-04T07:46:59.744Z,8.11
2019-03-04T07:51:18.021Z,8.55
2019-03-04T07:55:20.009Z,8.76
2019-03-04T07:59:21.898Z,8.98
2019-03-04T08:03:23.787Z,9.22
2019-03-04T08:07:46.175Z,9.42
2019-03-04T08:12:13.528Z,9.54
2019-03-04T08:16:15.413Z,9.70
2019-03-04T08:20:17.318Z,10.01
2019-03-04T08:24:19.241Z,10.45
2019-03-04T08:28:21.158Z,10.87
2019-03-04T08:32:23.781Z,11.36
2019-03-04T08:36:25.709Z,11.83
2019-03-04T08:40:27.629Z,12.05
2019-03-04T08:44:31.147Z,12.42
2019-03-04T08:48:33.212Z,12.68
2019-03-04T08:52:35.127Z,12.68
2019-03-04T08:56:37.035Z,12.78
2019-03-04T09:00:38.949Z,12.84
2019-03-04T09:04:40.875Z,12.91
2019-03-04T09:08:43.292Z,12.88
2019-03-04T09:12:45.195Z,12.88
2019-03-04T09:16:47.112Z,12.87
2019-03-04T09:20:49.035Z,12.84
2019-03-04T09:24:50.949Z,12.67
2019-03-04T09:28:52.865Z,12.60
2019-03-04T09:32:54.837Z,12.55
2019-03-04T09:36:56.758Z,12.40
2019-03-04T09:40:58.679Z,12.28
2019-03-04T09:45:00.586Z,12.16
2019-03-04T09:49:02.510Z,12.07
2019-03-04T09:53:04.580Z,11.96
2019-03-04T09:57:06.509Z,11.99
2019-03-04T10:01:21.379Z,12.01
2019-03-04T10:05:40.112Z,12.07
2019-03-04T10:10:16.686Z,12.08
2019-03-04T10:14:28.963Z,12.02
2019-03-04T10:18:51.905Z,11.88
2019-03-04T10:23:19.268Z,11.70
2019-03-04T10:27:46.852Z,11.46
2019-03-04T10:32:27.977Z,11.23
2019-03-04T10:36:55.110Z,11.07
2019-03-04T10:41:35.083Z,10.88
2019-03-04T10:46:04.113Z,10.77
2019-03-04T10:50:10.346Z,10.71
2019-03-04T10:54:12.286Z,10.69
2019-03-04T10:58:14.174Z,10.71
2019-03-04T11:02:16.093Z,10.77
2019-03-04T11:06:18.007Z,10.79
2019-03-04T11:10:19.926Z,10.88
2019-03-04T11:14:23.919Z,11.02
2019-03-04T11:18:25.825Z,11.08
2019-03-04T11:22:27.755Z,10.97
2019-03-04T11:26:29.672Z,10.96
2019-03-04T11:30:32.654Z,11.10
2019-03-04T11:34:34.578Z,11.13
2019-03-04T11:38:52.160Z,11.20
2019-03-04T11:42:54.116Z,11.35
2019-03-04T11:46:56.033Z,11.47
2019-03-04T11:50:57.946Z,11.42
2019-03-04T11:54:59.864Z,11.45
2019-03-04T11:59:01.769Z,11.37
2019-03-04T12:03:03.761Z,11.25
2019-03-04T12:07:05.745Z,11.19
2019-03-04T12:11:07.665Z,11.15
2019-03-04T12:15:16.993Z,11.14
2019-03-04T12:19:19.066Z,11.16
2019-03-04T12:23:20.975Z,11.19
2019-03-04T12:27:23.803Z,11.10
2019-03-04T12:31:29.925Z,11.03
2019-03-04T12:35:31.820Z,11.07
2019-03-04T12:39:34.802Z,11.05
2019-03-04T12:43:36.720Z,11.13
2019-03-04T12:47:38.643Z,11.18
2019-03-04T12:51:40.559Z,11.21
2019-03-04T12:55:42.480Z,11.19
2019-03-04T12:59:44.381Z,11.14
2019-03-04T13:03:46.397Z,11.06
2019-03-04T13:07:50.056Z,11.03
2019-03-04T13:11:51.988Z,11.11
2019-03-04T13:15:53.886Z,11.09
2019-03-04T13:19:57.071Z,11.09
2019-03-04T13:23:58.978Z,10.96
2019-03-04T13:28:08.136Z,10.92
2019-03-04T13:32:05.142Z,10.83
2019-03-04T13:36:09.730Z,10.77
2019-03-04T13:40:14.204Z,10.72
2019-03-04T13:44:16.123Z,10.61
2019-03-04T13:48:18.071Z,10.43
2019-03-04T13:52:19.990Z,10.42
2019-03-04T13:56:21.911Z,10.37
2019-03-04T14:00:32.505Z,10.31
2019-03-04T14:04:34.427Z,10.35
2019-03-04T14:08:36.336Z,10.39
2019-03-04T14:12:38.253Z,10.26
2019-03-04T14:16:40.172Z,10.16
2019-03-04T14:20:42.137Z,10.21
2019-03-04T14:24:44.091Z,10.18
2019-03-04T14:28:46.007Z,9.99
2019-03-04T14:32:47.915Z,9.90
2019-03-04T14:36:49.824Z,9.97
2019-03-04T14:40:51.731Z,10.02
2019-03-04T14:44:54.119Z,9.95
2019-03-04T14:48:57.090Z,10.00
2019-03-04T14:52:59.020Z,9.95
2019-03-04T14:57:00.900Z,9.89
2019-03-04T15:01:02.996Z,9.89
2019-03-04T15:05:07.415Z,9.85
2019-03-04T15:09:12.869Z,9.92
2019-03-04T15:13:14.755Z,9.99
2019-03-04T15:17:29.338Z,10.01
2019-03-04T15:21:32.818Z,9.96
2019-03-04T15:25:37.240Z,9.96
2019-03-04T15:29:39.149Z,9.98
2019-03-04T15:33:41.077Z,10.05
2019-03-04T15:37:43.432Z,10.02
2019-03-04T15:41:45.335Z,10.00
2019-03-04T15:50:30.278Z,9.89
2019-03-04T15:54:32.168Z,9.97
2019-03-04T15:58:34.411Z,9.98
2019-03-04T16:02:36.370Z,10.02
2019-03-04T16:06:38.370Z,10.17
2019-03-04T16:10:40.355Z,10.25
2019-03-04T16:14:42.362Z,10.31
2019-03-04T16:18:44.252Z,10.36
2019-03-04T16:22:47.426Z,10.31
2019-03-04T16:26:50.483Z,10.22
2019-03-04T16:30:52.884Z,10.08
2019-03-04T16:34:54.806Z,10.02
2019-03-04T16:38:56.702Z,9.92
2019-03-04T16:42:58.675Z,9.83
2019-03-04T16:47:00.599Z,9.80
2019-03-04T16:51:21.300Z,9.83
2019-03-04T16:55:24.054Z,9.87
2019-03-04T16:59:25.959Z,9.77
2019-03-04T17:03:27.889Z,9.33
2019-03-04T17:07:29.779Z,9.58
2019-03-04T17:11:31.775Z,9.53
2019-03-04T17:15:33.697Z,9.49
2019-03-04T17:19:35.612Z,9.44
2019-03-04T17:23:37.539Z,9.51
2019-03-04T17:27:41.433Z,8.77
2019-03-04T17:31:43.435Z,7.78
2019-03-04T17:35:45.590Z,7.44
2019-03-04T17:39:47.481Z,7.25
2019-03-04T17:43:49.379Z,6.91
2019-03-04T17:47:51.627Z,6.83
2019-03-04T17:51:53.523Z,6.68
2019-03-04T17:55:55.407Z,6.57
2019-03-04T17:59:57.300Z,6.53
2019-03-04T18:04:00.434Z,6.57
2019-03-04T18:08:02.384Z,6.60
2019-03-04T18:12:04.355Z,6.54
2019-03-04T18:16:06.248Z,6.59
2019-03-04T18:20:12.110Z,6.57
2019-03-04T18:24:14.023Z,6.56
2019-03-04T18:28:45.352Z,6.53
2019-03-04T18:32:57.535Z,6.48
2019-03-04T18:37:30.858Z,6.52
2019-03-04T18:42:14.535Z,6.56
2019-03-04T18:46:32.767Z,6.55
2019-03-04T18:50:34.703Z,6.59
2019-03-04T18:54:36.610Z,6.63
2019-03-04T18:58:38.498Z,6.54
2019-03-04T19:02:40.417Z,6.38
2019-03-04T19:06:42.323Z,6.10
2019-03-04T19:10:44.232Z,5.76
2019-03-04T19:14:46.113Z,5.45
2019-03-04T19:18:48.013Z,5.27
2019-03-04T19:22:49.915Z,5.19
2019-03-04T19:26:51.817Z,5.13
2019-03-04T19:30:53.722Z,5.07
2019-03-04T19:34:56.673Z,5.06
2019-03-04T19:38:58.642Z,5.08
2019-03-04T19:43:01.501Z,4.97
2019-03-04T19:47:03.465Z,4.96
2019-03-04T19:51:05.529Z,4.91
2019-03-04T19:55:12.677Z,4.91
2019-03-04T19:59:14.686Z,4.90
2019-03-04T20:03:16.565Z,4.78
2019-03-04T20:07:18.472Z,4.73
2019-03-04T20:11:20.506Z,4.73
2019-03-04T20:15:34.367Z,4.69
2019-03-04T20:19:36.928Z,4.60
2019-03-04T20:23:38.871Z,4.56
2019-03-04T20:27:40.770Z,4.50
2019-03-04T20:31:42.680Z,4.51
2019-03-04T20:35:44.656Z,4.54
2019-03-04T20:39:46.608Z,4.52
2019-03-04T20:43:53.244Z,4.41
2019-03-04T20:47:52.232Z,4.40
2019-03-04T20:51:54.142Z,4.35
2019-03-04T20:55:56.079Z,4.36
2019-03-04T20:59:57.984Z,4.35
2019-03-04T21:03:59.974Z,4.35
2019-03-04T21:08:02.151Z,4.41
2019-03-04T21:12:04.152Z,4.47
2019-03-04T21:16:07.105Z,4.48
2019-03-04T21:20:15.124Z,4.56
2019-03-04T21:24:17.102Z,4.47
2019-03-04T21:28:42.779Z,4.48
2019-03-04T21:32:45.491Z,4.49
2019-03-04T21:37:01.419Z,4.49
2019-03-04T21:41:19.970Z,4.56
2019-03-04T21:45:28.088Z,4.64
2019-03-04T21:49:33.802Z,4.69
2019-03-04T21:53:48.788Z,4.67
2019-03-04T21:57:52.710Z,4.76
2019-03-04T22:02:27.558Z,4.79
2019-03-04T22:06:29.619Z,4.83
2019-03-04T22:10:32.519Z,4.87
2019-03-04T22:14:34.473Z,4.82
2019-03-04T22:18:36.553Z,4.82
2019-03-04T22:22:38.546Z,4.74
2019-03-04T22:26:40.501Z,4.72
2019-03-04T22:30:42.418Z,4.69
2019-03-04T22:34:44.315Z,4.74
2019-03-04T22:38:46.229Z,4.67
2019-03-04T22:42:48.301Z,4.70
2019-03-04T22:46:50.201Z,4.60
2019-03-04T22:50:52.383Z,4.61
2019-03-04T22:54:54.290Z,4.62
2019-03-04T22:58:56.198Z,4.65
2019-03-04T23:02:58.147Z,4.67
2019-03-04T23:07:09.069Z,4.66
2019-03-04T23:11:11.306Z,4.61
2019-03-04T23:15:17.798Z,4.59
2019-03-04T23:19:19.696Z,4.59
2019-03-04T23:23:21.589Z,4.55
2019-03-04T23:27:24.339Z,4.45
2019-03-04T23:31:26.302Z,4.39
2019-03-04T23:35:28.205Z,4.39
2019-03-04T23:39:30.106Z,4.37
2019-03-04T23:43:31.994Z,4.42
2019-03-04T23:47:33.895Z,4.43
2019-03-04T23:51:35.804Z,4.40
2019-03-04T23:55:37.714Z,4.35
2019-03-04T23:59:39.613Z,4.34
